sensor_id;sensor_type;location;lat;lon;timestamp;pressure;altitude;pressure_sealevel;temperature;humidity
48035;BME280;33812;46.480;6.834;2024-03-08T00:00:27;93179.41;;;23.89;31.38
48035;BME280;33812;46.480;6.834;2024-03-08T00:04:30;93178.50;;;23.92;29.20
48035;BME280;33812;46.480;6.834;2024-03-08T00:08:32;93183.97;;;24.01;30.37
48035;BME280;33812;46.480;6.834;2024-03-08T00:12:34;93186.97;;;23.88;30.57
48035;BME280;33812;46.480;6.834;2024-03-08T00:16:36;93182.34;;;23.85;30.62
48035;BME280;33812;46.480;6.834;2024-03-08T00:20:39;93176.34;;;23.87;30.64
48035;BME280;33812;46.480;6.834;2024-03-08T00:24:41;93169.72;;;23.84;30.44
48035;BME280;33812;46.480;6.834;2024-03-08T00:28:43;93172.97;;;23.83;30.62
48035;BME280;33812;46.480;6.834;2024-03-08T00:32:45;93164.34;;;23.81;30.63
48035;BME280;33812;46.480;6.834;2024-03-08T00:36:48;93150.16;;;23.78;30.74
48035;BME280;33812;46.480;6.834;2024-03-08T00:40:53;93150.16;;;23.78;30.82
48035;BME280;33812;46.480;6.834;2024-03-08T00:44:54;93145.56;;;23.75;30.96
48035;BME280;33812;46.480;6.834;2024-03-08T00:48:58;93144.78;;;23.75;30.63
48035;BME280;33812;46.480;6.834;2024-03-08T00:53:01;93136.19;;;23.73;31.06
48035;BME280;33812;46.480;6.834;2024-03-08T00:57:05;93134.66;;;23.72;30.69
48035;BME280;33812;46.480;6.834;2024-03-08T01:01:07;93134.66;;;23.72;30.79
48035;BME280;33812;46.480;6.834;2024-03-08T01:05:10;93131.09;;;23.71;30.63
48035;BME280;33812;46.480;6.834;2024-03-08T01:09:13;93124.50;;;23.69;30.97
48035;BME280;33812;46.480;6.834;2024-03-08T01:13:18;93129.56;;;23.70;30.63
48035;BME280;33812;46.480;6.834;2024-03-08T01:17:21;93124.97;;;23.67;30.61
48035;BME280;33812;46.480;6.834;2024-03-08T01:21:24;93120.66;;;23.66;30.58
48035;BME280;33812;46.480;6.834;2024-03-08T01:25:27;93111.88;;;23.67;31.06
48035;BME280;33812;46.480;6.834;2024-03-08T01:29:29;93105.72;;;23.63;30.65
48035;BME280;33812;46.480;6.834;2024-03-08T01:33:31;93096.63;;;23.63;30.83
48035;BME280;33812;46.480;6.834;2024-03-08T01:37:33;93106.03;;;23.65;30.76
48035;BME280;33812;46.480;6.834;2024-03-08T01:41:36;93104.19;;;23.62;30.77
48035;BME280;33812;46.480;6.834;2024-03-08T01:45:38;93102.00;;;23.66;30.60
48035;BME280;33812;46.480;6.834;2024-03-08T01:49:40;93098.19;;;23.64;30.50
48035;BME280;33812;46.480;6.834;2024-03-08T01:53:42;93094.31;;;23.61;30.73
48035;BME280;33812;46.480;6.834;2024-03-08T01:57:49;93092.50;;;23.58;30.90
48035;BME280;33812;46.480;6.834;2024-03-08T02:01:51;93084.47;;;23.60;30.78
48035;BME280;33812;46.480;6.834;2024-03-08T02:05:53;93087.44;;;23.57;31.02
48035;BME280;33812;46.480;6.834;2024-03-08T02:09:55;93078.94;;;23.60;30.57
48035;BME280;33812;46.480;6.834;2024-03-08T02:13:58;93083.88;;;23.56;30.89
48035;BME280;33812;46.480;6.834;2024-03-08T02:18:00;93076.03;;;23.54;30.90
48035;BME280;33812;46.480;6.834;2024-03-08T02:22:04;93060.16;;;23.55;30.88
48035;BME280;33812;46.480;6.834;2024-03-08T02:26:07;93060.91;;;23.55;30.87
48035;BME280;33812;46.480;6.834;2024-03-08T02:30:10;93055.09;;;23.53;30.84
48035;BME280;33812;46.480;6.834;2024-03-08T02:34:13;93055.84;;;23.54;30.79
48035;BME280;33812;46.480;6.834;2024-03-08T02:38:17;93054.78;;;23.51;30.90
48035;BME280;33812;46.480;6.834;2024-03-08T02:42:19;93048.47;;;23.51;30.51
48035;BME280;33812;46.480;6.834;2024-03-08T02:46:21;93047.22;;;23.52;30.75
48035;BME280;33812;46.480;6.834;2024-03-08T02:50:23;93031.84;;;23.51;30.76
48035;BME280;33812;46.480;6.834;2024-03-08T02:54:28;93024.75;;;23.50;30.58
48035;BME280;33812;46.480;6.834;2024-03-08T02:58:30;93025.03;;;23.52;30.36
48035;BME280;33812;46.480;6.834;2024-03-08T03:02:31;93024.75;;;23.50;30.85
48035;BME280;33812;46.480;6.834;2024-03-08T03:06:35;93024.94;;;23.46;30.36
48035;BME280;33812;46.480;6.834;2024-03-08T03:10:38;93025.69;;;23.47;30.70
48035;BME280;33812;46.480;6.834;2024-03-08T03:14:40;93012.13;;;23.49;30.71
48035;BME280;33812;46.480;6.834;2024-03-08T03:18:42;93006.56;;;23.49;30.25
48035;BME280;33812;46.480;6.834;2024-03-08T03:22:44;93006.28;;;23.47;30.53
48035;BME280;33812;46.480;6.834;2024-03-08T03:26:49;92993.34;;;23.43;30.79
48035;BME280;33812;46.480;6.834;2024-03-08T03:30:52;92989.53;;;23.41;30.28
48035;BME280;33812;46.480;6.834;2024-03-08T03:34:54;92990.28;;;23.41;30.32
48035;BME280;33812;46.480;6.834;2024-03-08T03:38:56;92986.28;;;23.42;30.39
48035;BME280;33812;46.480;6.834;2024-03-08T03:43:08;92982.88;;;23.38;30.52
48035;BME280;33812;46.480;6.834;2024-03-08T03:47:10;92972.09;;;23.40;30.50
48035;BME280;33812;46.480;6.834;2024-03-08T03:51:12;92966.56;;;23.40;30.56
48035;BME280;33812;46.480;6.834;2024-03-08T03:55:15;92965.03;;;23.39;30.57
48035;BME280;33812;46.480;6.834;2024-03-08T03:59:19;92965.03;;;23.39;30.26
48035;BME280;33812;46.480;6.834;2024-03-08T04:03:21;92974.28;;;23.36;30.21
48035;BME280;33812;46.480;6.834;2024-03-08T04:07:23;92971.50;;;23.36;30.47
48035;BME280;33812;46.480;6.834;2024-03-08T04:11:25;92984.13;;;23.37;30.33
48035;BME280;33812;46.480;6.834;2024-03-08T04:15:28;92977.03;;;23.36;30.53
48035;BME280;33812;46.480;6.834;2024-03-08T04:19:31;92975.03;;;23.37;30.27
48035;BME280;33812;46.480;6.834;2024-03-08T04:23:35;92963.66;;;23.35;30.29
48035;BME280;33812;46.480;6.834;2024-03-08T04:27:37;92970.16;;;23.31;30.27
48035;BME280;33812;46.480;6.834;2024-03-08T04:31:40;92974.00;;;23.34;30.04
48035;BME280;33812;46.480;6.834;2024-03-08T04:35:42;92972.44;;;23.33;30.17
48035;BME280;33812;46.480;6.834;2024-03-08T04:39:46;92969.97;;;23.35;30.35
48035;BME280;33812;46.480;6.834;2024-03-08T04:43:48;92955.06;;;23.33;30.21
48035;BME280;33812;46.480;6.834;2024-03-08T04:47:51;92952.75;;;23.31;30.25
48035;BME280;33812;46.480;6.834;2024-03-08T04:51:53;92953.69;;;23.28;30.04
48035;BME280;33812;46.480;6.834;2024-03-08T04:55:55;92954.94;;;23.27;30.39
48035;BME280;33812;46.480;6.834;2024-03-08T04:59:58;92953.38;;;23.26;30.19
48035;BME280;33812;46.480;6.834;2024-03-08T05:04:01;92946.50;;;23.21;30.17
48035;BME280;33812;46.480;6.834;2024-03-08T05:08:04;92953.13;;;23.24;29.89
48035;BME280;33812;46.480;6.834;2024-03-08T05:12:06;92945.16;;;23.16;30.02
48035;BME280;33812;46.480;6.834;2024-03-08T05:16:08;92939.97;;;23.09;30.44
48035;BME280;33812;46.480;6.834;2024-03-08T05:20:11;92933.63;;;23.09;30.04
48035;BME280;33812;46.480;6.834;2024-03-08T05:24:14;92917.50;;;23.07;30.12
48035;BME280;33812;46.480;6.834;2024-03-08T05:28:16;92925.81;;;23.07;30.39
48035;BME280;33812;46.480;6.834;2024-03-08T05:32:18;92923.03;;;23.07;30.32
48035;BME280;33812;46.480;6.834;2024-03-08T05:36:22;92925.16;;;23.12;30.04
48035;BME280;33812;46.480;6.834;2024-03-08T05:40:23;92915.88;;;23.15;30.13
48035;BME280;33812;46.480;6.834;2024-03-08T05:44:25;92914.38;;;23.14;30.14
48035;BME280;33812;46.480;6.834;2024-03-08T05:48:29;92900.31;;;23.18;29.93
48035;BME280;33812;46.480;6.834;2024-03-08T05:52:33;92902.44;;;23.23;29.74
48035;BME280;33812;46.480;6.834;2024-03-08T05:56:35;92899.78;;;23.29;29.99
48035;BME280;33812;46.480;6.834;2024-03-08T06:00:37;92903.22;;;23.48;29.29
48035;BME280;33812;46.480;6.834;2024-03-08T06:04:40;92898.34;;;23.43;28.83
48035;BME280;33812;46.480;6.834;2024-03-08T06:08:44;92902.44;;;23.48;28.73
48035;BME280;33812;46.480;6.834;2024-03-08T06:12:47;92912.41;;;23.54;29.40
48035;BME280;33812;46.480;6.834;2024-03-08T06:16:50;92903.91;;;23.58;29.67
48035;BME280;33812;46.480;6.834;2024-03-08T06:20:52;92899.31;;;23.70;29.29
48035;BME280;33812;46.480;6.834;2024-03-08T06:24:55;92892.63;;;23.77;29.06
48035;BME280;33812;46.480;6.834;2024-03-08T06:28:57;92889.75;;;23.71;29.58
48035;BME280;33812;46.480;6.834;2024-03-08T06:32:59;92896.81;;;20.24;27.53
48035;BME280;33812;46.480;6.834;2024-03-08T06:37:01;92893.84;;;23.21;28.24
48035;BME280;33812;46.480;6.834;2024-03-08T06:41:05;92895.47;;;23.52;27.62
48035;BME280;33812;46.480;6.834;2024-03-08T06:45:07;92885.16;;;23.68;27.83
48035;BME280;33812;46.480;6.834;2024-03-08T06:49:10;92884.69;;;23.70;28.08
48035;BME280;33812;46.480;6.834;2024-03-08T06:53:12;92884.00;;;23.75;27.94
48035;BME280;33812;46.480;6.834;2024-03-08T06:57:16;92879.34;;;23.81;27.99
48035;BME280;33812;46.480;6.834;2024-03-08T07:01:18;92887.19;;;23.83;28.25
48035;BME280;33812;46.480;6.834;2024-03-08T07:05:21;92886.03;;;23.89;28.30
48035;BME280;33812;46.480;6.834;2024-03-08T07:09:23;92873.91;;;23.87;28.25
48035;BME280;33812;46.480;6.834;2024-03-08T07:13:28;92885.56;;;23.91;28.22
48035;BME280;33812;46.480;6.834;2024-03-08T07:17:30;92885.66;;;23.97;27.75
48035;BME280;33812;46.480;6.834;2024-03-08T07:21:34;92877.03;;;23.95;27.97
48035;BME280;33812;46.480;6.834;2024-03-08T07:25:36;92888.81;;;23.89;27.98
48035;BME280;33812;46.480;6.834;2024-03-08T07:29:41;92880.97;;;23.88;28.06
48035;BME280;33812;46.480;6.834;2024-03-08T07:33:42;92888.03;;;23.89;28.04
48035;BME280;33812;46.480;6.834;2024-03-08T07:37:44;92887.00;;;23.86;27.91
48035;BME280;33812;46.480;6.834;2024-03-08T07:41:46;92897.81;;;23.84;28.29
48035;BME280;33812;46.480;6.834;2024-03-08T07:45:49;92886.13;;;23.80;28.57
48035;BME280;33812;46.480;6.834;2024-03-08T07:49:53;92887.84;;;23.77;28.20
48035;BME280;33812;46.480;6.834;2024-03-08T07:53:55;92887.75;;;23.72;28.30
48035;BME280;33812;46.480;6.834;2024-03-08T07:57:57;92879.44;;;23.72;28.50
48035;BME280;33812;46.480;6.834;2024-03-08T08:02:00;92877.63;;;23.69;28.24
48035;BME280;33812;46.480;6.834;2024-03-08T08:06:02;92866.81;;;23.71;28.64
48035;BME280;33812;46.480;6.834;2024-03-08T08:10:05;92865.06;;;23.73;28.19
48035;BME280;33812;46.480;6.834;2024-03-08T08:14:07;92861.34;;;23.76;28.58
48035;BME280;33812;46.480;6.834;2024-03-08T08:18:11;92858.56;;;23.76;28.29
48035;BME280;33812;46.480;6.834;2024-03-08T08:22:14;92842.03;;;23.82;28.64
48035;BME280;33812;46.480;6.834;2024-03-08T08:26:16;92852.44;;;23.87;28.54
48035;BME280;33812;46.480;6.834;2024-03-08T08:30:18;92851.78;;;23.93;28.45
48035;BME280;33812;46.480;6.834;2024-03-08T08:34:21;92845.56;;;23.98;28.70
48035;BME280;33812;46.480;6.834;2024-03-08T08:38:24;92844.34;;;23.99;28.42
48035;BME280;33812;46.480;6.834;2024-03-08T08:42:27;92837.72;;;23.96;28.50
48035;BME280;33812;46.480;6.834;2024-03-08T08:46:29;92839.44;;;23.94;28.46
48035;BME280;33812;46.480;6.834;2024-03-08T08:50:32;92837.63;;;24.06;28.78
48035;BME280;33812;46.480;6.834;2024-03-08T08:54:34;92835.19;;;24.13;28.84
48035;BME280;33812;46.480;6.834;2024-03-08T08:58:36;92826.69;;;24.17;28.64
48035;BME280;33812;46.480;6.834;2024-03-08T09:02:38;92829.28;;;24.21;28.70
48035;BME280;33812;46.480;6.834;2024-03-08T09:06:41;92833.88;;;24.24;28.52
48035;BME280;33812;46.480;6.834;2024-03-08T09:10:44;92812.25;;;24.28;29.00
48035;BME280;33812;46.480;6.834;2024-03-08T09:14:46;92815.59;;;24.32;29.00
48035;BME280;33812;46.480;6.834;2024-03-08T09:18:48;92822.38;;;24.31;28.73
48035;BME280;33812;46.480;6.834;2024-03-08T09:22:51;92819.88;;;24.33;29.12
48035;BME280;33812;46.480;6.834;2024-03-08T09:26:53;92806.28;;;24.35;29.11
48035;BME280;33812;46.480;6.834;2024-03-08T09:30:55;92821.22;;;24.38;29.15
48035;BME280;33812;46.480;6.834;2024-03-08T09:34:59;92809.34;;;24.37;28.84
48035;BME280;33812;46.480;6.834;2024-03-08T09:39:03;92811.44;;;24.43;28.79
48035;BME280;33812;46.480;6.834;2024-03-08T09:43:08;92805.94;;;24.48;28.92
48035;BME280;33812;46.480;6.834;2024-03-08T09:47:13;92807.28;;;24.53;29.12
48035;BME280;33812;46.480;6.834;2024-03-08T09:51:16;92802.44;;;24.48;28.78
48035;BME280;33812;46.480;6.834;2024-03-08T09:55:19;92808.81;;;24.54;29.10
48035;BME280;33812;46.480;6.834;2024-03-08T09:59:22;92797.00;;;24.59;29.01
48035;BME280;33812;46.480;6.834;2024-03-08T10:03:57;92805.63;;;24.61;32.31
48035;BME280;33812;46.480;6.834;2024-03-08T10:07:59;92781.94;;;24.66;31.92
48035;BME280;33812;46.480;6.834;2024-03-08T10:12:00;92788.75;;;24.65;30.98
48035;BME280;33812;46.480;6.834;2024-03-08T10:16:03;92778.75;;;24.73;30.89
48035;BME280;33812;46.480;6.834;2024-03-08T10:20:13;92770.50;;;24.79;31.08
48035;BME280;33812;46.480;6.834;2024-03-08T10:24:17;92759.09;;;24.77;30.62
48035;BME280;33812;46.480;6.834;2024-03-08T10:28:19;92759.38;;;24.79;30.49
48035;BME280;33812;46.480;6.834;2024-03-08T10:32:20;92741.88;;;24.73;30.95
48035;BME280;33812;46.480;6.834;2024-03-08T10:36:26;92747.50;;;24.79;30.70
48035;BME280;33812;46.480;6.834;2024-03-08T10:40:30;92744.22;;;24.80;30.48
48035;BME280;33812;46.480;6.834;2024-03-08T10:44:45;92728.31;;;24.81;30.74
48035;BME280;33812;46.480;6.834;2024-03-08T10:48:49;92731.38;;;24.83;30.73
48035;BME280;33812;46.480;6.834;2024-03-08T10:52:53;92714.16;;;24.79;30.33
48035;BME280;33812;46.480;6.834;2024-03-08T10:56:55;92718.19;;;24.78;30.42
48035;BME280;33812;46.480;6.834;2024-03-08T11:00:57;92707.28;;;24.74;30.40
48035;BME280;33812;46.480;6.834;2024-03-08T11:05:02;92713.06;;;24.70;30.41
48035;BME280;33812;46.480;6.834;2024-03-08T11:09:08;92699.66;;;24.69;30.75
48035;BME280;33812;46.480;6.834;2024-03-08T11:13:32;92697.09;;;24.65;30.33
48035;BME280;33812;46.480;6.834;2024-03-08T11:17:45;92686.97;;;24.62;30.82
48035;BME280;33812;46.480;6.834;2024-03-08T11:21:47;92669.44;;;24.56;30.63
48035;BME280;33812;46.480;6.834;2024-03-08T11:25:50;92656.59;;;24.58;30.46
48035;BME280;33812;46.480;6.834;2024-03-08T11:30:03;92661.41;;;24.58;30.39
48035;BME280;33812;46.480;6.834;2024-03-08T11:34:15;92619.66;;;24.52;30.37
48035;BME280;33812;46.480;6.834;2024-03-08T11:38:19;92622.72;;;24.54;30.41
48035;BME280;33812;46.480;6.834;2024-03-08T11:42:22;92638.81;;;24.50;30.28
48035;BME280;33812;46.480;6.834;2024-03-08T11:46:24;92623.44;;;24.49;30.11
48035;BME280;33812;46.480;6.834;2024-03-08T11:50:28;92624.47;;;24.51;30.11
48035;BME280;33812;46.480;6.834;2024-03-08T11:54:30;92633.34;;;24.56;29.93
48035;BME280;33812;46.480;6.834;2024-03-08T11:58:33;92600.78;;;24.56;30.27
48035;BME280;33812;46.480;6.834;2024-03-08T12:02:37;92606.13;;;24.60;30.71
48035;BME280;33812;46.480;6.834;2024-03-08T12:06:41;92608.47;;;24.67;30.23
48035;BME280;33812;46.480;6.834;2024-03-08T12:10:45;92615.75;;;24.65;30.29
48035;BME280;33812;46.480;6.834;2024-03-08T12:14:48;92607.41;;;24.65;30.32
48035;BME280;33812;46.480;6.834;2024-03-08T12:18:51;92599.16;;;24.70;30.43
48035;BME280;33812;46.480;6.834;2024-03-08T12:22:54;92599.16;;;24.70;30.22
48035;BME280;33812;46.480;6.834;2024-03-08T12:26:57;92595.66;;;24.75;30.59
48035;BME280;33812;46.480;6.834;2024-03-08T12:31:00;92576.72;;;24.74;30.41
48035;BME280;33812;46.480;6.834;2024-03-08T12:35:02;92584.59;;;24.81;29.91
48035;BME280;33812;46.480;6.834;2024-03-08T12:39:06;92553.34;;;24.86;30.70
48035;BME280;33812;46.480;6.834;2024-03-08T12:43:12;92543.72;;;24.87;30.38
48035;BME280;33812;46.480;6.834;2024-03-08T12:47:17;92530.88;;;24.90;30.46
48035;BME280;33812;46.480;6.834;2024-03-08T12:51:20;92518.44;;;24.85;30.60
48035;BME280;33812;46.480;6.834;2024-03-08T12:55:22;92524.84;;;24.92;30.66
48035;BME280;33812;46.480;6.834;2024-03-08T12:59:24;92527.16;;;24.99;30.16
48035;BME280;33812;46.480;6.834;2024-03-08T13:03:28;92500.47;;;25.13;30.18
48035;BME280;33812;46.480;6.834;2024-03-08T13:07:30;92493.34;;;25.01;30.32
48035;BME280;33812;46.480;6.834;2024-03-08T13:11:32;92495.06;;;24.98;29.85
48035;BME280;33812;46.480;6.834;2024-03-08T13:15:36;92494.56;;;24.99;30.66
48035;BME280;33812;46.480;6.834;2024-03-08T13:19:39;92496.59;;;24.99;30.40
48035;BME280;33812;46.480;6.834;2024-03-08T13:23:42;92479.94;;;25.05;30.24
48035;BME280;33812;46.480;6.834;2024-03-08T13:27:46;92452.66;;;25.03;30.11
48035;BME280;33812;46.480;6.834;2024-03-08T13:31:49;92444.31;;;25.03;30.36
48035;BME280;33812;46.480;6.834;2024-03-08T13:35:53;92437.25;;;25.02;30.00
48035;BME280;33812;46.480;6.834;2024-03-08T13:39:55;92426.13;;;25.02;30.16
48035;BME280;33812;46.480;6.834;2024-03-08T13:43:57;92445.84;;;25.04;30.35
48035;BME280;33812;46.480;6.834;2024-03-08T13:47:59;92432.97;;;25.07;30.17
48035;BME280;33812;46.480;6.834;2024-03-08T13:52:02;92427.69;;;25.09;29.99
48035;BME280;33812;46.480;6.834;2024-03-08T13:56:04;92433.75;;;25.13;30.25
48035;BME280;33812;46.480;6.834;2024-03-08T14:00:07;92423.91;;;25.12;30.12
48035;BME280;33812;46.480;6.834;2024-03-08T14:04:09;92420.63;;;25.14;30.13
48035;BME280;33812;46.480;6.834;2024-03-08T14:08:12;92402.69;;;25.15;30.44
48035;BME280;33812;46.480;6.834;2024-03-08T14:12:14;92404.47;;;25.18;30.15
48035;BME280;33812;46.480;6.834;2024-03-08T14:16:16;92390.84;;;25.20;30.41
48035;BME280;33812;46.480;6.834;2024-03-08T14:20:18;92392.59;;;25.17;30.36
48035;BME280;33812;46.480;6.834;2024-03-08T14:24:21;92365.56;;;25.18;30.19
48035;BME280;33812;46.480;6.834;2024-03-08T14:28:24;92369.59;;;25.17;30.30
48035;BME280;33812;46.480;6.834;2024-03-08T14:32:27;92362.28;;;25.19;29.88
48035;BME280;33812;46.480;6.834;2024-03-08T14:36:29;92353.41;;;25.15;30.19
48035;BME280;33812;46.480;6.834;2024-03-08T14:40:32;92348.06;;;25.11;30.49
48035;BME280;33812;46.480;6.834;2024-03-08T14:44:34;92346.81;;;25.07;30.16
48035;BME280;33812;46.480;6.834;2024-03-08T14:48:36;92346.78;;;25.01;30.35
48035;BME280;33812;46.480;6.834;2024-03-08T14:52:38;92338.16;;;24.99;30.40
48035;BME280;33812;46.480;6.834;2024-03-08T14:56:41;92364.19;;;24.96;30.12
48035;BME280;33812;46.480;6.834;2024-03-08T15:00:43;92357.13;;;24.95;30.72
48035;BME280;33812;46.480;6.834;2024-03-08T15:04:46;92350.25;;;24.90;30.28
48035;BME280;33812;46.480;6.834;2024-03-08T15:08:57;92347.00;;;24.92;30.43
48035;BME280;33812;46.480;6.834;2024-03-08T15:13:00;92340.19;;;24.93;30.33
48035;BME280;33812;46.480;6.834;2024-03-08T15:17:09;92352.25;;;24.90;30.44
48035;BME280;33812;46.480;6.834;2024-03-08T15:21:17;92311.63;;;24.92;30.22
48035;BME280;33812;46.480;6.834;2024-03-08T15:25:19;92326.53;;;24.95;30.21
48035;BME280;33812;46.480;6.834;2024-03-08T15:29:27;92320.72;;;24.93;29.86
48035;BME280;33812;46.480;6.834;2024-03-08T15:33:29;92320.50;;;24.96;30.16
48035;BME280;33812;46.480;6.834;2024-03-08T15:37:31;92340.72;;;24.97;29.99
48035;BME280;33812;46.480;6.834;2024-03-08T15:41:34;92336.66;;;24.98;29.62
48035;BME280;33812;46.480;6.834;2024-03-08T15:45:37;92356.88;;;24.98;29.89
48035;BME280;33812;46.480;6.834;2024-03-08T15:49:39;92354.59;;;24.97;29.54
48035;BME280;33812;46.480;6.834;2024-03-08T15:53:41;92362.94;;;24.97;30.07
48035;BME280;33812;46.480;6.834;2024-03-08T15:57:44;92374.28;;;24.99;29.84
48035;BME280;33812;46.480;6.834;2024-03-08T16:01:49;92388.69;;;24.97;29.48
48035;BME280;33812;46.480;6.834;2024-03-08T16:05:51;92384.91;;;24.95;29.94
48035;BME280;33812;46.480;6.834;2024-03-08T16:09:54;92389.19;;;24.96;29.56
48035;BME280;33812;46.480;6.834;2024-03-08T16:13:56;92395.53;;;24.96;30.00
48035;BME280;33812;46.480;6.834;2024-03-08T16:17:59;92403.63;;;25.00;29.57
48035;BME280;33812;46.480;6.834;2024-03-08T16:22:04;92410.69;;;25.01;29.66
48035;BME280;33812;46.480;6.834;2024-03-08T16:26:06;92415.75;;;25.03;29.49
48035;BME280;33812;46.480;6.834;2024-03-08T16:30:10;92404.16;;;25.04;29.42
48035;BME280;33812;46.480;6.834;2024-03-08T16:34:17;92412.50;;;25.04;29.69
48035;BME280;33812;46.480;6.834;2024-03-08T16:38:19;92402.13;;;25.05;29.53
48035;BME280;33812;46.480;6.834;2024-03-08T16:42:21;92403.91;;;25.02;29.84
48035;BME280;33812;46.480;6.834;2024-03-08T16:46:23;92397.09;;;25.09;29.32
48035;BME280;33812;46.480;6.834;2024-03-08T16:50:27;92393.28;;;25.06;29.09
48035;BME280;33812;46.480;6.834;2024-03-08T16:54:31;92394.28;;;25.03;28.97
48035;BME280;33812;46.480;6.834;2024-03-08T16:58:34;92400.84;;;25.00;29.27
48035;BME280;33812;46.480;6.834;2024-03-08T17:02:36;92406.19;;;25.04;29.67
48035;BME280;33812;46.480;6.834;2024-03-08T17:06:40;92402.06;;;24.93;29.93
48035;BME280;33812;46.480;6.834;2024-03-08T17:10:43;92393.25;;;24.95;30.26
48035;BME280;33812;46.480;6.834;2024-03-08T17:14:45;92390.91;;;24.87;30.14
48035;BME280;33812;46.480;6.834;2024-03-08T17:18:47;92390.13;;;24.87;30.36
48035;BME280;33812;46.480;6.834;2024-03-08T17:22:53;92383.28;;;24.82;30.82
48035;BME280;33812;46.480;6.834;2024-03-08T17:26:56;92387.06;;;24.79;30.87
48035;BME280;33812;46.480;6.834;2024-03-08T17:30:58;92389.31;;;24.75;31.43
48035;BME280;33812;46.480;6.834;2024-03-08T17:35:00;92395.31;;;24.68;31.76
48035;BME280;33812;46.480;6.834;2024-03-08T17:39:04;92381.41;;;24.62;31.96
48035;BME280;33812;46.480;6.834;2024-03-08T17:43:18;92383.91;;;24.60;32.33
48035;BME280;33812;46.480;6.834;2024-03-08T17:47:23;92396.75;;;24.57;32.02
48035;BME280;33812;46.480;6.834;2024-03-08T17:51:27;92405.31;;;24.54;32.10
48035;BME280;33812;46.480;6.834;2024-03-08T17:55:31;92409.09;;;24.50;32.12
48035;BME280;33812;46.480;6.834;2024-03-08T17:59:34;92429.03;;;24.49;32.25
48035;BME280;33812;46.480;6.834;2024-03-08T18:03:36;92434.09;;;24.50;33.27
48035;BME280;33812;46.480;6.834;2024-03-08T18:07:38;92437.34;;;24.49;33.97
48035;BME280;33812;46.480;6.834;2024-03-08T18:11:41;92449.75;;;24.54;34.89
48035;BME280;33812;46.480;6.834;2024-03-08T18:15:44;92450.78;;;24.56;34.04
48035;BME280;33812;46.480;6.834;2024-03-08T18:19:47;92435.91;;;24.59;33.30
48035;BME280;33812;46.480;6.834;2024-03-08T18:23:49;92455.19;;;24.69;32.11
48035;BME280;33812;46.480;6.834;2024-03-08T18:27:52;92449.19;;;24.76;31.61
48035;BME280;33812;46.480;6.834;2024-03-08T18:31:54;92452.41;;;24.69;31.69
48035;BME280;33812;46.480;6.834;2024-03-08T18:35:56;92447.56;;;24.63;31.62
48035;BME280;33812;46.480;6.834;2024-03-08T18:39:59;92457.16;;;24.62;32.18
48035;BME280;33812;46.480;6.834;2024-03-08T18:44:03;92448.06;;;24.62;32.11
48035;BME280;33812;46.480;6.834;2024-03-08T18:48:06;92424.31;;;24.61;32.22
48035;BME280;33812;46.480;6.834;2024-03-08T18:52:10;92427.84;;;24.61;32.36
48035;BME280;33812;46.480;6.834;2024-03-08T18:56:12;92427.59;;;24.59;32.11
48035;BME280;33812;46.480;6.834;2024-03-08T19:00:18;92440.97;;;24.61;32.32
48035;BME280;33812;46.480;6.834;2024-03-08T19:04:27;92453.88;;;24.64;32.77
48035;BME280;33812;46.480;6.834;2024-03-08T19:08:43;92450.84;;;24.62;32.62
48035;BME280;33812;46.480;6.834;2024-03-08T19:12:48;92455.91;;;24.63;32.54
48035;BME280;33812;46.480;6.834;2024-03-08T19:17:01;92437.97;;;24.65;32.94
48035;BME280;33812;46.480;6.834;2024-03-08T19:21:07;92439.50;;;24.66;32.55
48035;BME280;33812;46.480;6.834;2024-03-08T19:25:15;92454.38;;;24.62;32.75
48035;BME280;33812;46.480;6.834;2024-03-08T19:29:28;92465.22;;;24.60;32.89
48035;BME280;33812;46.480;6.834;2024-03-08T19:33:33;92458.63;;;24.58;32.70
48035;BME280;33812;46.480;6.834;2024-03-08T19:37:36;92464.47;;;24.60;33.05
48035;BME280;33812;46.480;6.834;2024-03-08T19:41:39;92469.47;;;24.56;32.53
48035;BME280;33812;46.480;6.834;2024-03-08T19:45:41;92472.47;;;24.52;32.54
48035;BME280;33812;46.480;6.834;2024-03-08T19:49:46;92460.34;;;24.49;35.34
48035;BME280;33812;46.480;6.834;2024-03-08T19:53:48;92460.28;;;24.44;35.56
48035;BME280;33812;46.480;6.834;2024-03-08T19:57:51;92461.34;;;24.46;35.18
48035;BME280;33812;46.480;6.834;2024-03-08T20:01:57;92488.00;;;24.38;35.10
48035;BME280;33812;46.480;6.834;2024-03-08T20:06:00;92495.31;;;24.35;35.55
48035;BME280;33812;46.480;6.834;2024-03-08T20:10:07;92503.09;;;24.31;35.71
48035;BME280;33812;46.480;6.834;2024-03-08T20:14:10;92518.00;;;24.34;35.75
48035;BME280;33812;46.480;6.834;2024-03-08T20:18:13;92525.56;;;24.33;35.61
48035;BME280;33812;46.480;6.834;2024-03-08T20:22:16;92528.63;;;24.35;36.02
48035;BME280;33812;46.480;6.834;2024-03-08T20:26:19;92521.31;;;24.38;35.68
48035;BME280;33812;46.480;6.834;2024-03-08T20:30:24;92526.13;;;24.37;36.44
48035;BME280;33812;46.480;6.834;2024-03-08T20:34:28;92521.31;;;24.38;35.93
48035;BME280;33812;46.480;6.834;2024-03-08T20:38:31;92529.72;;;24.44;35.72
48035;BME280;33812;46.480;6.834;2024-03-08T20:42:33;92526.44;;;24.45;35.60
48035;BME280;33812;46.480;6.834;2024-03-08T20:46:37;92539.81;;;24.47;36.06
48035;BME280;33812;46.480;6.834;2024-03-08T20:50:40;92538.31;;;24.46;35.79
48035;BME280;33812;46.480;6.834;2024-03-08T20:54:44;92537.31;;;24.49;35.34
48035;BME280;33812;46.480;6.834;2024-03-08T20:58:48;92532.34;;;24.53;35.26
48035;BME280;33812;46.480;6.834;2024-03-08T21:02:50;92543.44;;;24.53;35.14
48035;BME280;33812;46.480;6.834;2024-03-08T21:06:52;92535.31;;;24.49;35.35
48035;BME280;33812;46.480;6.834;2024-03-08T21:10:55;92536.56;;;24.48;35.63
48035;BME280;33812;46.480;6.834;2024-03-08T21:14:57;92507.50;;;24.44;35.74
48035;BME280;33812;46.480;6.834;2024-03-08T21:18:59;92464.56;;;24.45;35.81
48035;BME280;33812;46.480;6.834;2024-03-08T21:23:01;92437.78;;;24.42;35.36
48035;BME280;33812;46.480;6.834;2024-03-08T21:27:06;92445.34;;;24.35;35.93